This is the latest recevied weather packets stored in our database for station/object KF6GPE. If no packets are shown the sender has not sent any weather packets the latest 10 day(s).
| Time | Temp. | Humidity | Pressure | Rain* | Wind** | Luminosity | Snow |
|---|---|---|---|---|---|---|---|
| 1777830003 | 12.78° C | 83% | 986.7 hPa | 0 mm | - | 1012 W/m² | - |
| 1777829403 | 12.22° C | 84% | 986.7 hPa | 0 mm | - | 1011 W/m² | - |
| 1777828803 | 12.22° C | 83% | 986.6 hPa | 0 mm | - | 1016 W/m² | - |
| 1777828203 | 11.67° C | 90% | 986.6 hPa | 0 mm | - | 1006 W/m² | - |
| 1777827604 | 11.67° C | 89% | 986.6 hPa | 0 mm | - | 1007 W/m² | - |
| 1777827003 | 11.67° C | 90% | 986.6 hPa | 0 mm | - | 1009 W/m² | - |
| 1777826403 | 11.67° C | 90% | 986.6 hPa | 0 mm | - | 1011 W/m² | - |
| 1777825802 | 11.11° C | 92% | 986.6 hPa | 0 mm | - | 1010 W/m² | - |
| 1777825203 | 11.11° C | 92% | 986.6 hPa | 0 mm | - | 1010 W/m² | - |
| 1777824604 | 11.11° C | 94% | 986.5 hPa | 0 mm | - | 1008 W/m² | - |
| 1777824002 | 11.11° C | 93% | 986.5 hPa | 0 mm | - | 1006 W/m² | - |
| 1777823403 | 11.11° C | 93% | 986.4 hPa | 0 mm | - | 1006 W/m² | - |
| 1777822803 | 10.56° C | 93% | 986.3 hPa | 0 mm | - | 1005 W/m² | - |
| 1777822203 | 10.56° C | 94% | 986.2 hPa | 0 mm | - | 1005 W/m² | - |
| 1777821603 | 10.56° C | 94% | 986.1 hPa | 0 mm | - | 1004 W/m² | - |
| 1777821003 | 10.56° C | 92% | 986.1 hPa | 0 mm | - | 1001 W/m² | - |
| 1777820403 | 11.11° C | 91% | 986 hPa | 0 mm | - | 1003 W/m² | - |
| 1777819804 | 11.11° C | 92% | 985.9 hPa | 0 mm | - | 1002 W/m² | - |
| 1777819203 | 10.56° C | 92% | 985.8 hPa | 0 mm | - | 1002 W/m² | - |
| 1777818603 | 10.56° C | 93% | 985.6 hPa | 0 mm | - | 1002 W/m² | - |
| 1777818004 | 10.56° C | 93% | 985.5 hPa | 0 mm | - | 1001 W/m² | - |
| 1777817403 | 10.56° C | 94% | 985.4 hPa | 0 mm | - | 1001 W/m² | - |
| 1777816804 | 10.56° C | 94% | 985.2 hPa | 0 mm | - | 1000 W/m² | - |
| 1777816203 | 10.56° C | 93% | 985.1 hPa | 0 mm | - | 1000 W/m² | - |
| 1777815603 | 10.56° C | 93% | 985 hPa | 0 mm | - | 1000 W/m² | - |
* Rain latest hour (hover to see other rain measurements)
** Current wind speed in m/s (hover to see current wind gust speed)